Terminal Aerodrome Forecast
Issued by NWS Green Bay, WI

Home | Current Version | Previous Version | Text Only | Print | Product List | Glossary Off
Versions: 1 2 3 4 5 6 7 8 9 10 11 12 13 14 15 16

000
FTUS43 KGRB 281720
TAFGRB
TAF
KGRB 281720Z 2818/2918 06011G18KT P6SM VCSH OVC070
     FM290000 04011KT P6SM VCSH OVC070
     FM291000 04008KT P6SM BKN080=

USA.gov is the U.S. government's official web portal to all federal, state and local government web resources and services.